Time;durP1;ratioP1;P1;durP2;ratioP2;P2;SDS_P1;SDS_P2;PMS_P1;PMS_P2;Temp;Humidity;BMP_temperature;BMP_pressure;BME280_temperature;BME280_humidity;BME280_pressure;Samples;Min_cycle;Max_cycle;Signal;HPM_P1;HPM_P2
2021/10/30 00:02:21;;;;;;;33.00;25.43;;;10.00;99.90;;;;;;5094145;28;20465;-69
2021/10/30 00:04:48;;;;;;;37.63;26.03;;;10.00;99.90;;;;;;5096681;28;20471;-69
2021/10/30 00:07:15;;;;;;;31.03;24.60;;;10.00;99.90;;;;;;5097565;28;20465;-69
2021/10/30 00:09:42;;;;;;;30.70;24.17;;;10.00;99.90;;;;;;5097573;28;20470;-70
2021/10/30 00:12:12;;;;;;;38.30;26.10;;;10.00;99.90;;;;;;5097660;28;20461;-70
2021/10/30 00:14:42;;;;;;;36.23;24.77;;;10.00;99.90;;;;;;5097278;28;20468;-69
2021/10/30 00:17:09;;;;;;;34.67;25.73;;;10.00;99.90;;;;;;5097334;28;20741;-69
2021/10/30 00:19:36;;;;;;;31.33;24.27;;;9.90;99.90;;;;;;5097721;28;20800;-69
2021/10/30 00:22:03;;;;;;;34.43;24.77;;;9.90;99.90;;;;;;5097111;28;20792;-69
2021/10/30 00:24:31;;;;;;;32.17;25.60;;;9.90;99.90;;;;;;5096958;28;20913;-69
2021/10/30 00:26:58;;;;;;;32.50;25.43;;;9.80;99.90;;;;;;5097317;28;20460;-69
2021/10/30 00:29:25;;;;;;;38.27;25.87;;;9.80;99.90;;;;;;5096921;28;20456;-69
2021/10/30 00:31:54;;;;;;;34.90;26.50;;;9.70;99.90;;;;;;5097133;28;20458;-69
2021/10/30 00:34:21;;;;;;;31.90;24.47;;;9.80;99.90;;;;;;5097092;28;20450;-70
2021/10/30 00:36:48;;;;;;;30.23;24.63;;;9.70;99.90;;;;;;5097086;28;20460;-69
2021/10/30 00:39:14;;;;;;;33.50;24.07;;;9.70;99.90;;;;;;5096554;28;20486;-70
2021/10/30 00:41:41;;;;;;;35.23;26.53;;;9.70;99.90;;;;;;5096970;28;20518;-69
2021/10/30 00:44:09;;;;;;;29.83;25.80;;;9.80;99.90;;;;;;5097181;28;20462;-69
2021/10/30 00:46:36;;;;;;;33.50;25.67;;;9.80;99.90;;;;;;5096615;28;20471;-69
2021/10/30 00:49:04;;;;;;;28.10;23.80;;;9.80;99.90;;;;;;5096542;28;20929;-70
2021/10/30 00:51:31;;;;;;;29.53;22.73;;;9.80;99.90;;;;;;5096836;28;20464;-70
2021/10/30 00:53:59;;;;;;;30.47;24.80;;;9.80;99.90;;;;;;5096531;28;20895;-69
2021/10/30 00:56:28;;;;;;;34.73;26.70;;;9.80;99.90;;;;;;5096463;28;20785;-69
2021/10/30 00:58:56;;;;;;;33.30;25.30;;;9.80;99.90;;;;;;5096337;28;20473;-69
2021/10/30 01:01:23;;;;;;;39.63;26.63;;;9.80;99.90;;;;;;5096214;28;20461;-69
2021/10/30 01:03:51;;;;;;;33.93;26.27;;;9.80;99.90;;;;;;5096914;28;20467;-69
2021/10/30 01:06:19;;;;;;;35.70;26.00;;;9.80;99.90;;;;;;5096867;28;20785;-70
2021/10/30 01:08:46;;;;;;;36.37;27.27;;;9.80;99.90;;;;;;5096302;28;20532;-69
2021/10/30 01:11:15;;;;;;;34.87;26.30;;;9.80;99.90;;;;;;5096934;28;20833;-69
2021/10/30 01:13:42;;;;;;;32.53;25.67;;;9.80;99.90;;;;;;5097217;28;20507;-69
2021/10/30 01:16:09;;;;;;;36.67;27.37;;;9.80;99.90;;;;;;5098511;28;20483;-69
2021/10/30 01:18:36;;;;;;;31.70;24.93;;;9.90;99.90;;;;;;5100454;28;20573;-69
2021/10/30 01:21:04;;;;;;;37.80;27.37;;;9.90;99.90;;;;;;5101162;28;20887;-69
2021/10/30 01:23:31;;;;;;;35.57;24.90;;;9.80;99.90;;;;;;5101518;28;20941;-70
2021/10/30 01:26:01;;;;;;;34.60;25.80;;;9.80;99.90;;;;;;5099135;28;20461;-69
2021/10/30 01:28:29;;;;;;;36.57;26.10;;;9.80;99.90;;;;;;5099337;28;20457;-69
2021/10/30 01:30:56;;;;;;;34.30;26.63;;;9.80;99.90;;;;;;5096814;28;20460;-69
2021/10/30 01:33:23;;;;;;;36.13;27.47;;;9.80;99.90;;;;;;5096617;28;20489;-69
2021/10/30 01:35:49;;;;;;;37.40;27.10;;;9.80;99.90;;;;;;5097044;28;20465;-70
2021/10/30 01:38:18;;;;;;;39.60;28.40;;;9.70;99.90;;;;;;5095641;28;20481;-69
2021/10/30 01:40:47;;;;;;;35.97;26.63;;;9.70;99.90;;;;;;5095748;28;20890;-70
2021/10/30 01:43:15;;;;;;;37.03;26.03;;;9.70;99.90;;;;;;5095513;28;20468;-69
2021/10/30 01:45:44;;;;;;;32.10;26.37;;;9.70;99.90;;;;;;5095790;28;20468;-70
2021/10/30 01:48:11;;;;;;;33.17;26.37;;;9.70;99.90;;;;;;5095778;28;20450;-69
2021/10/30 01:50:39;;;;;;;33.30;27.30;;;9.70;99.90;;;;;;5095135;28;20538;-70
2021/10/30 01:53:06;;;;;;;35.97;26.30;;;9.70;99.90;;;;;;5095827;28;20453;-70
2021/10/30 01:55:37;;;;;;;34.07;26.00;;;9.70;99.90;;;;;;5095277;28;20553;-69
2021/10/30 01:58:05;;;;;;;37.90;27.53;;;9.70;99.90;;;;;;5095703;28;20820;-69
2021/10/30 02:00:32;;;;;;;36.33;28.00;;;9.70;99.90;;;;;;5095443;28;20825;-69
2021/10/30 02:02:59;;;;;;;33.33;27.40;;;9.60;99.90;;;;;;5094923;28;20472;-69
2021/10/30 02:05:26;;;;;;;36.93;27.67;;;9.60;99.90;;;;;;5095286;28;20468;-69
2021/10/30 02:07:53;;;;;;;35.07;26.77;;;9.60;99.90;;;;;;5094940;28;20453;-69
2021/10/30 02:10:19;;;;;;;38.00;28.10;;;9.60;99.90;;;;;;5095687;28;20469;-70
2021/10/30 02:12:47;;;;;;;41.00;29.00;;;9.60;99.90;;;;;;5095446;28;20458;-69
2021/10/30 02:15:14;;;;;;;36.93;29.07;;;9.60;99.90;;;;;;5095190;28;20461;-70
2021/10/30 02:17:41;;;;;;;39.80;29.83;;;9.60;99.90;;;;;;5094833;28;20457;-70
2021/10/30 02:20:10;;;;;;;33.50;25.40;;;9.60;99.90;;;;;;5094983;28;20486;-69
2021/10/30 02:22:37;;;;;;;34.33;27.67;;;9.60;99.90;;;;;;5094880;28;20489;-69
2021/10/30 02:25:04;;;;;;;39.27;29.63;;;9.60;99.90;;;;;;5095172;28;20767;-70
2021/10/30 02:27:31;;;;;;;35.53;27.17;;;9.60;99.90;;;;;;5094424;28;20471;-72
2021/10/30 02:29:59;;;;;;;34.73;26.93;;;9.60;99.90;;;;;;5094528;28;20902;-69
2021/10/30 02:32:26;;;;;;;36.07;28.20;;;9.60;99.90;;;;;;5094828;28;20454;-68
2021/10/30 02:34:53;;;;;;;34.43;26.97;;;9.60;99.90;;;;;;5094543;28;20466;-70
2021/10/30 02:37:20;;;;;;;36.20;26.90;;;9.60;99.90;;;;;;5094725;28;20454;-70
2021/10/30 02:39:46;;;;;;;37.33;28.20;;;9.60;99.90;;;;;;5094392;28;20559;-70
2021/10/30 02:42:14;;;;;;;36.30;27.00;;;9.60;99.90;;;;;;5094822;28;20461;-70
2021/10/30 02:44:41;;;;;;;36.57;26.73;;;9.50;99.90;;;;;;5094629;28;20456;-68
2021/10/30 02:47:09;;;;;;;37.30;27.63;;;9.50;99.90;;;;;;5094901;28;20453;-68
2021/10/30 02:49:36;;;;;;;36.30;26.70;;;9.40;99.90;;;;;;5095012;28;20456;-68
2021/10/30 02:52:03;;;;;;;41.57;26.93;;;9.40;99.90;;;;;;5094693;28;20466;-69
2021/10/30 02:54:30;;;;;;;35.67;25.63;;;9.40;99.90;;;;;;5094495;28;20457;-69
2021/10/30 02:56:57;;;;;;;36.07;27.23;;;9.40;99.90;;;;;;5094582;28;20457;-70
2021/10/30 02:59:23;;;;;;;34.33;27.07;;;9.40;99.90;;;;;;5095399;28;20493;-70
2021/10/30 03:01:52;;;;;;;38.33;28.87;;;9.40;99.90;;;;;;5094519;28;20468;-69
2021/10/30 03:04:20;;;;;;;35.30;27.50;;;9.40;99.90;;;;;;5094513;28;20948;-70
2021/10/30 03:06:47;;;;;;;37.03;27.37;;;9.50;99.90;;;;;;5094237;28;20458;-69
2021/10/30 03:09:14;;;;;;;39.87;28.43;;;9.50;99.90;;;;;;5094470;28;20450;-68
2021/10/30 03:11:41;;;;;;;39.53;29.33;;;9.40;99.90;;;;;;5094451;28;20781;-68
2021/10/30 03:14:07;;;;;;;35.43;27.60;;;9.40;99.90;;;;;;5094451;28;20457;-68
2021/10/30 03:16:34;;;;;;;35.63;27.83;;;9.40;99.90;;;;;;5094230;28;20471;-70
2021/10/30 03:19:01;;;;;;;35.27;26.90;;;9.40;99.90;;;;;;5093965;28;20475;-69
2021/10/30 03:21:29;;;;;;;34.13;26.80;;;9.30;99.90;;;;;;5094330;28;20455;-68
2021/10/30 03:23:56;;;;;;;35.97;28.33;;;9.30;99.90;;;;;;5094014;28;20918;-70
2021/10/30 03:26:22;;;;;;;37.33;27.97;;;9.30;99.90;;;;;;5094368;28;20453;-69
2021/10/30 03:28:49;;;;;;;32.37;27.43;;;9.20;99.90;;;;;;5094191;28;20462;-69
2021/10/30 03:31:16;;;;;;;34.80;27.27;;;9.20;99.90;;;;;;5094364;28;20465;-70
2021/10/30 03:33:43;;;;;;;37.07;27.90;;;9.20;99.90;;;;;;5094360;28;20836;-69
2021/10/30 03:36:09;;;;;;;35.43;25.33;;;9.20;99.90;;;;;;5094220;28;20464;-69
2021/10/30 03:38:38;;;;;;;34.23;26.90;;;9.20;99.90;;;;;;5094968;28;20485;-69
2021/10/30 03:41:08;;;;;;;37.60;27.13;;;9.20;99.90;;;;;;5097941;28;20501;-69
2021/10/30 03:43:35;;;;;;;34.97;27.80;;;9.20;99.90;;;;;;5098397;28;20452;-69
2021/10/30 03:46:02;;;;;;;39.63;27.97;;;9.20;99.90;;;;;;5098197;28;20551;-69
2021/10/30 03:48:28;;;;;;;38.37;28.97;;;9.20;99.90;;;;;;5097838;28;20551;-69
2021/10/30 03:50:55;;;;;;;35.40;27.50;;;9.10;99.90;;;;;;5097697;28;20481;-69
2021/10/30 03:53:22;;;;;;;33.80;27.13;;;9.10;99.90;;;;;;5097893;28;20878;-69
2021/10/30 03:55:51;;;;;;;31.60;24.40;;;9.10;99.90;;;;;;5097328;28;20517;-69
2021/10/30 03:58:18;;;;;;;37.50;26.90;;;9.00;99.90;;;;;;5097993;28;20457;-69
2021/10/30 04:00:45;;;;;;;35.90;28.07;;;9.00;99.90;;;;;;5097676;28;20464;-69
2021/10/30 04:03:12;;;;;;;34.50;26.10;;;8.90;99.90;;;;;;5097578;28;20767;-69
2021/10/30 04:05:39;;;;;;;34.80;25.93;;;8.90;99.90;;;;;;5097840;28;20453;-70
2021/10/30 04:08:06;;;;;;;34.93;28.60;;;8.90;99.90;;;;;;5097579;28;20754;-69
2021/10/30 04:10:33;;;;;;;34.93;28.43;;;8.80;99.90;;;;;;5097379;28;20450;-70
2021/10/30 04:13:01;;;;;;;35.53;25.87;;;8.80;99.90;;;;;;5097188;28;20476;-69
2021/10/30 04:15:27;;;;;;;35.30;25.93;;;8.80;99.90;;;;;;5097234;28;20450;-69
2021/10/30 04:17:54;;;;;;;34.10;26.27;;;8.80;99.90;;;;;;5097310;28;20937;-70
2021/10/30 04:20:21;;;;;;;35.57;26.40;;;8.80;99.90;;;;;;5097171;28;20485;-69
2021/10/30 04:22:47;;;;;;;32.87;26.97;;;8.80;99.90;;;;;;5097464;28;20464;-69
2021/10/30 04:25:14;;;;;;;34.03;25.70;;;8.80;99.90;;;;;;5097098;28;20921;-69
2021/10/30 04:27:41;;;;;;;30.67;24.77;;;8.80;99.90;;;;;;5096587;28;20446;-70
2021/10/30 04:30:09;;;;;;;35.80;27.50;;;8.80;99.90;;;;;;5097176;28;20525;-70
2021/10/30 04:32:36;;;;;;;32.70;25.33;;;8.80;99.90;;;;;;5096936;28;20458;-69
2021/10/30 04:35:06;;;;;;;34.37;25.57;;;8.80;99.90;;;;;;5097075;28;20466;-70
2021/10/30 04:37:35;;;;;;;32.00;24.47;;;8.80;99.90;;;;;;5097057;28;20446;-69
2021/10/30 04:40:02;;;;;;;31.77;24.67;;;8.80;99.90;;;;;;5096448;28;20502;-69
2021/10/30 04:42:29;;;;;;;35.77;25.87;;;8.80;99.90;;;;;;5096887;28;20465;-68
2021/10/30 04:44:56;;;;;;;32.40;26.07;;;8.80;99.90;;;;;;5096773;28;20462;-69
2021/10/30 04:47:25;;;;;;;29.93;25.20;;;8.70;99.90;;;;;;5096898;28;20492;-69
2021/10/30 04:49:51;;;;;;;32.17;25.40;;;8.70;99.90;;;;;;5096308;28;20457;-69
2021/10/30 04:52:18;;;;;;;36.33;25.60;;;8.70;99.90;;;;;;5096450;28;20453;-69
2021/10/30 04:54:45;;;;;;;34.37;24.63;;;8.70;99.90;;;;;;5096916;28;20564;-69
2021/10/30 04:57:12;;;;;;;32.53;24.50;;;8.70;99.90;;;;;;5096693;28;20465;-69
2021/10/30 04:59:39;;;;;;;30.40;23.53;;;8.70;99.90;;;;;;5096295;28;20485;-69
2021/10/30 05:02:06;;;;;;;31.73;25.10;;;8.70;99.90;;;;;;5096494;28;20480;-69
2021/10/30 05:04:34;;;;;;;31.30;24.67;;;8.70;99.90;;;;;;5096613;28;20787;-69
2021/10/30 05:07:01;;;;;;;30.77;24.60;;;8.70;99.90;;;;;;5096467;28;20793;-69
2021/10/30 05:09:27;;;;;;;35.40;25.50;;;8.70;99.90;;;;;;5096117;28;20457;-69
2021/10/30 05:11:54;;;;;;;32.47;25.83;;;8.70;99.90;;;;;;5096262;28;20466;-69
2021/10/30 05:14:21;;;;;;;33.10;24.37;;;8.70;99.90;;;;;;5096477;28;20469;-69
2021/10/30 05:16:49;;;;;;;29.90;24.60;;;8.70;99.90;;;;;;5096646;28;20815;-69
2021/10/30 05:19:16;;;;;;;30.57;23.57;;;8.70;99.90;;;;;;5097181;28;20510;-68
2021/10/30 05:21:45;;;;;;;30.67;23.93;;;8.70;99.90;;;;;;5097197;28;20457;-70
2021/10/30 05:24:12;;;;;;;30.80;23.97;;;8.60;99.90;;;;;;5096284;28;20526;-69
2021/10/30 05:26:38;;;;;;;31.67;24.70;;;8.60;99.90;;;;;;5096126;28;20532;-69
2021/10/30 05:29:05;;;;;;;31.47;25.10;;;8.60;99.90;;;;;;5096019;28;20459;-69
2021/10/30 05:31:32;;;;;;;30.10;23.00;;;8.60;99.90;;;;;;5095902;28;20455;-69
2021/10/30 05:33:59;;;;;;;31.63;24.53;;;8.60;99.90;;;;;;5095967;28;20458;-69
2021/10/30 05:36:27;;;;;;;33.57;23.47;;;8.60;99.90;;;;;;5095550;28;20473;-69
2021/10/30 05:38:55;;;;;;;32.50;24.53;;;8.60;99.90;;;;;;5095362;28;20821;-69
2021/10/30 05:41:22;;;;;;;30.87;24.37;;;8.60;99.90;;;;;;5095623;28;20463;-68
2021/10/30 05:43:51;;;;;;;27.63;24.37;;;8.60;99.90;;;;;;5095304;28;20458;-69
2021/10/30 05:46:18;;;;;;;31.30;23.83;;;8.60;99.90;;;;;;5095696;28;20469;-69
2021/10/30 05:48:45;;;;;;;33.07;25.07;;;8.60;99.90;;;;;;5095648;28;20461;-69
2021/10/30 05:51:12;;;;;;;33.83;24.87;;;8.60;99.90;;;;;;5095788;28;20473;-69
2021/10/30 05:53:44;;;;;;;34.23;25.07;;;8.60;99.90;;;;;;5095343;28;20544;-69
2021/10/30 05:56:13;;;;;;;32.77;25.27;;;8.60;99.90;;;;;;5095639;28;20456;-69
2021/10/30 05:58:43;;;;;;;30.90;23.83;;;8.60;99.90;;;;;;5095458;28;20461;-69
2021/10/30 06:01:09;;;;;;;31.60;24.37;;;8.50;99.90;;;;;;5094503;28;20956;-69
2021/10/30 06:03:36;;;;;;;30.20;23.63;;;8.50;99.90;;;;;;5095042;28;20963;-69
2021/10/30 06:06:03;;;;;;;31.40;24.90;;;8.50;99.90;;;;;;5095280;28;20457;-69
2021/10/30 06:08:30;;;;;;;29.20;24.00;;;8.50;99.90;;;;;;5095066;28;20457;-69
2021/10/30 06:10:56;;;;;;;29.37;23.70;;;8.40;99.90;;;;;;5095119;28;20456;-70
2021/10/30 06:13:25;;;;;;;29.50;23.80;;;8.40;99.90;;;;;;5095251;28;20465;-70
2021/10/30 06:15:51;;;;;;;30.83;24.60;;;8.40;99.90;;;;;;5095154;28;20461;-70
2021/10/30 06:18:18;;;;;;;30.50;24.73;;;8.50;99.90;;;;;;5094754;28;20450;-70
2021/10/30 06:20:45;;;;;;;34.77;24.90;;;8.50;99.90;;;;;;5095175;28;20489;-70
2021/10/30 06:23:13;;;;;;;27.67;22.60;;;8.50;99.90;;;;;;5095108;28;20458;-70
2021/10/30 06:25:41;;;;;;;28.93;24.63;;;8.50;99.90;;;;;;5095161;28;20458;-70
2021/10/30 06:28:08;;;;;;;32.40;24.50;;;8.50;99.90;;;;;;5095035;28;20853;-71
2021/10/30 06:30:36;;;;;;;30.87;24.77;;;8.50;99.90;;;;;;5094914;28;20493;-70
2021/10/30 06:33:03;;;;;;;29.90;24.33;;;8.40;99.90;;;;;;5094768;28;20923;-70
2021/10/30 06:35:30;;;;;;;34.00;24.57;;;8.40;99.90;;;;;;5094884;28;20468;-68
2021/10/30 06:37:57;;;;;;;32.50;25.07;;;8.40;99.90;;;;;;5094803;28;20472;-69
2021/10/30 06:40:25;;;;;;;28.33;23.63;;;8.40;99.90;;;;;;5094298;28;20792;-70
2021/10/30 06:42:52;;;;;;;34.83;24.80;;;8.40;99.90;;;;;;5095278;28;20791;-69
2021/10/30 06:45:19;;;;;;;31.00;24.10;;;8.40;99.90;;;;;;5094550;28;20459;-69
2021/10/30 06:47:47;;;;;;;30.33;23.53;;;8.40;99.90;;;;;;5094708;28;20480;-71
2021/10/30 06:50:20;;;;;;;31.20;24.50;;;8.40;99.90;;;;;;5094801;28;20901;-69
2021/10/30 06:52:49;;;;;;;32.10;24.67;;;8.40;99.90;;;;;;5095015;28;20438;-69
2021/10/30 06:55:16;;;;;;;32.90;23.97;;;8.40;99.90;;;;;;5094389;28;20892;-69
2021/10/30 06:57:44;;;;;;;32.23;24.27;;;8.50;99.90;;;;;;5094868;28;20464;-69
2021/10/30 07:00:12;;;;;;;38.03;26.50;;;8.50;99.90;;;;;;5094787;28;20481;-70
2021/10/30 07:02:40;;;;;;;28.80;23.27;;;8.60;99.90;;;;;;5094846;28;20464;-70
2021/10/30 07:05:09;;;;;;;29.10;21.83;;;8.60;99.90;;;;;;5094979;28;20548;-70
2021/10/30 07:07:36;;;;;;;29.50;22.93;;;8.60;99.90;;;;;;5094357;28;20453;-70
2021/10/30 07:10:04;;;;;;;30.33;23.70;;;8.60;99.90;;;;;;5094479;28;20465;-69
2021/10/30 07:12:33;;;;;;;28.27;22.50;;;8.60;99.90;;;;;;5095513;28;20495;-70
2021/10/30 07:15:00;;;;;;;30.40;22.33;;;8.60;99.90;;;;;;5098767;28;20540;-70
2021/10/30 07:17:27;;;;;;;32.77;24.63;;;8.70;99.90;;;;;;5098714;28;20654;-70
2021/10/30 07:19:54;;;;;;;28.47;23.77;;;8.70;99.90;;;;;;5098490;28;20483;-70
2021/10/30 07:22:22;;;;;;;27.23;22.07;;;8.80;99.90;;;;;;5097952;28;20479;-70
2021/10/30 07:24:52;;;;;;;27.40;22.30;;;8.80;99.90;;;;;;5098142;28;20922;-70
2021/10/30 07:27:19;;;;;;;33.67;23.40;;;8.80;99.90;;;;;;5098447;28;20533;-70
2021/10/30 07:29:48;;;;;;;28.10;21.80;;;8.80;99.90;;;;;;5098310;28;20458;-69
2021/10/30 07:32:15;;;;;;;32.23;22.57;;;8.90;99.90;;;;;;5098198;28;20511;-69
2021/10/30 07:34:41;;;;;;;29.13;23.37;;;9.00;99.90;;;;;;5098239;28;20518;-69
2021/10/30 07:37:10;;;;;;;30.50;22.90;;;9.00;99.90;;;;;;5098297;28;20457;-69
2021/10/30 07:39:39;;;;;;;32.40;22.87;;;9.00;99.90;;;;;;5097783;28;20498;-69
2021/10/30 07:42:07;;;;;;;29.60;22.70;;;9.10;99.90;;;;;;5098263;28;20461;-69
2021/10/30 07:44:36;;;;;;;28.87;21.93;;;9.10;99.90;;;;;;5098423;28;20465;-69
2021/10/30 07:47:03;;;;;;;27.33;20.77;;;9.10;99.90;;;;;;5097735;28;20557;-69
2021/10/30 07:49:31;;;;;;;23.73;21.10;;;9.20;99.90;;;;;;5097670;28;20466;-69
2021/10/30 07:51:58;;;;;;;27.20;22.17;;;9.30;99.90;;;;;;5098055;28;20467;-69
2021/10/30 07:54:25;;;;;;;25.90;21.57;;;9.30;99.90;;;;;;5097966;28;20458;-69
2021/10/30 07:56:53;;;;;;;26.50;21.47;;;9.40;99.90;;;;;;5097381;28;20464;-69
2021/10/30 07:59:19;;;;;;;27.80;22.60;;;9.50;99.90;;;;;;5097441;28;20552;-69
2021/10/30 08:01:46;;;;;;;27.60;22.00;;;9.50;99.90;;;;;;5098261;28;20477;-69
2021/10/30 08:04:15;;;;;;;26.10;20.90;;;9.60;99.90;;;;;;5098096;28;20453;-70
2021/10/30 08:06:42;;;;;;;28.90;23.93;;;9.70;99.90;;;;;;5101330;28;20924;-69
2021/10/30 08:09:08;;;;;;;27.67;22.50;;;9.70;99.90;;;;;;5103104;28;20454;-70
2021/10/30 08:11:35;;;;;;;27.50;21.73;;;9.80;99.90;;;;;;5104360;28;20523;-68
2021/10/30 08:14:04;;;;;;;27.53;21.53;;;9.80;99.90;;;;;;5102275;28;20473;-69
2021/10/30 08:16:30;;;;;;;25.57;20.80;;;9.90;99.90;;;;;;5100708;28;20866;-69
2021/10/30 08:18:58;;;;;;;24.47;20.03;;;10.00;99.90;;;;;;5098927;28;20463;-69
2021/10/30 08:21:25;;;;;;;26.87;21.40;;;10.00;99.90;;;;;;5099312;28;20523;-68
2021/10/30 08:23:52;;;;;;;25.80;20.87;;;10.10;99.90;;;;;;5098267;28;20465;-69
2021/10/30 08:26:21;;;;;;;26.83;21.00;;;10.20;99.90;;;;;;5097260;28;20462;-69
2021/10/30 08:28:47;;;;;;;32.57;22.77;;;10.30;99.90;;;;;;5097253;28;20459;-68
2021/10/30 08:31:15;;;;;;;30.03;21.60;;;10.40;99.90;;;;;;5097013;28;20464;-68
2021/10/30 08:33:42;;;;;;;22.47;20.07;;;10.40;99.90;;;;;;5098381;28;20458;-69
2021/10/30 08:36:09;;;;;;;22.73;20.20;;;10.50;99.90;;;;;;5096908;28;20533;-69
2021/10/30 08:38:37;;;;;;;28.73;19.20;;;10.50;99.90;;;;;;5096662;28;20809;-69
2021/10/30 08:41:04;;;;;;;26.17;19.17;;;10.60;99.90;;;;;;5096890;28;20462;-69
2021/10/30 08:43:32;;;;;;;24.47;19.40;;;10.60;99.90;;;;;;5097226;28;20458;-69
2021/10/30 08:46:00;;;;;;;28.60;20.63;;;10.70;99.90;;;;;;5096943;28;20472;-69
2021/10/30 08:48:30;;;;;;;23.87;19.27;;;10.70;99.90;;;;;;5096428;28;20456;-69
2021/10/30 08:50:57;;;;;;;25.07;19.70;;;10.70;99.90;;;;;;5096535;28;20438;-69
2021/10/30 08:53:24;;;;;;;28.40;20.80;;;10.80;99.90;;;;;;5096736;28;20455;-69
2021/10/30 08:55:52;;;;;;;23.57;20.73;;;10.80;99.90;;;;;;5096645;28;20537;-70
2021/10/30 08:58:20;;;;;;;29.00;21.77;;;10.90;99.90;;;;;;5096558;28;20786;-69
2021/10/30 09:00:49;;;;;;;28.10;21.50;;;11.00;99.90;;;;;;5096133;28;20506;-69
2021/10/30 09:03:19;;;;;;;24.20;19.33;;;11.00;99.90;;;;;;5096647;28;20464;-69
2021/10/30 09:05:49;;;;;;;33.43;21.27;;;11.10;99.90;;;;;;5096816;28;20511;-69
2021/10/30 09:08:17;;;;;;;28.20;21.17;;;11.20;99.90;;;;;;5096575;28;20770;-69
2021/10/30 09:10:46;;;;;;;22.50;19.00;;;11.30;99.90;;;;;;5096166;28;20480;-69
2021/10/30 09:13:14;;;;;;;23.93;19.50;;;11.40;99.90;;;;;;5096368;28;20460;-69
2021/10/30 09:15:42;;;;;;;23.23;18.30;;;11.50;99.90;;;;;;5095867;28;20459;-69
2021/10/30 09:18:21;;;;;;;24.80;19.70;;;11.70;99.90;;;;;;5096147;28;20467;-70
2021/10/30 09:20:51;;;;;;;23.67;17.47;;;11.80;99.90;;;;;;5095943;28;20484;-69
2021/10/30 09:23:19;;;;;;;21.80;19.27;;;11.90;99.90;;;;;;5097235;28;20862;-69
2021/10/30 09:29:33;;;;;;;22.30;17.90;;;12.20;99.90;;;;;;5081990;28;20524;-69
2021/10/30 09:32:11;;;;;;;23.37;18.17;;;12.20;99.90;;;;;;5095968;28;20454;-69
2021/10/30 09:34:42;;;;;;;21.20;17.43;;;12.30;99.90;;;;;;5095625;28;20911;-69
2021/10/30 09:37:19;;;;;;;19.50;16.77;;;12.40;99.90;;;;;;5095278;28;20913;-69
2021/10/30 09:39:46;;;;;;;19.93;17.60;;;12.50;99.90;;;;;;5095559;28;20882;-69
2021/10/30 09:42:24;;;;;;;18.17;16.20;;;12.60;99.90;;;;;;5095315;28;20546;-68
2021/10/30 09:45:06;;;;;;;22.67;16.93;;;12.70;99.90;;;;;;5095196;28;20450;-69
2021/10/30 09:47:33;;;;;;;21.13;16.70;;;12.80;99.90;;;;;;5095293;28;20911;-69
2021/10/30 09:50:00;;;;;;;21.27;17.90;;;12.90;99.90;;;;;;5095420;28;20464;-69
2021/10/30 09:52:32;;;;;;;23.83;17.27;;;13.00;99.90;;;;;;5095762;28;20465;-68
2021/10/30 09:54:59;;;;;;;21.40;16.40;;;13.10;99.90;;;;;;5095480;28;20538;-69
2021/10/30 09:57:29;;;;;;;23.20;16.87;;;13.10;99.90;;;;;;5094919;28;21036;-69
2021/10/30 09:59:59;;;;;;;22.60;16.67;;;13.20;99.90;;;;;;5095307;28;20548;-69
2021/10/30 10:02:27;;;;;;;24.50;16.23;;;13.30;99.90;;;;;;5095327;28;20772;-69
2021/10/30 10:04:55;;;;;;;21.33;17.97;;;13.40;99.90;;;;;;5094898;28;20468;-69
2021/10/30 10:07:27;;;;;;;22.53;16.90;;;13.50;99.90;;;;;;5095038;28;20465;-69
2021/10/30 10:09:56;;;;;;;21.00;16.40;;;13.60;99.90;;;;;;5095129;28;20438;-69
2021/10/30 10:12:23;;;;;;;21.40;16.23;;;13.60;99.90;;;;;;5095154;28;20868;-69
2021/10/30 10:14:52;;;;;;;22.43;16.43;;;13.70;99.90;;;;;;5095103;28;20468;-69
2021/10/30 10:17:19;;;;;;;20.40;15.10;;;13.80;99.90;;;;;;5094970;28;20453;-69
2021/10/30 10:19:49;;;;;;;18.20;16.30;;;13.80;99.90;;;;;;5094508;28;20787;-68
2021/10/30 10:22:18;;;;;;;18.40;15.03;;;13.90;99.90;;;;;;5094766;28;20554;-69
2021/10/30 10:24:45;;;;;;;22.47;17.30;;;13.90;99.90;;;;;;5095065;28;20454;-68
2021/10/30 10:27:13;;;;;;;18.60;15.97;;;14.00;99.90;;;;;;5094759;28;20468;-68
2021/10/30 10:29:42;;;;;;;19.70;15.00;;;14.00;99.90;;;;;;5094469;28;20945;-68
2021/10/30 10:32:19;;;;;;;18.20;15.40;;;14.10;99.90;;;;;;5094430;28;20793;-68
2021/10/30 10:34:47;;;;;;;20.13;16.63;;;14.20;99.90;;;;;;5094978;28;20480;-68
2021/10/30 10:37:25;;;;;;;19.30;15.33;;;14.30;99.90;;;;;;5094820;28;20462;-68
2021/10/30 10:39:54;;;;;;;17.60;14.90;;;14.30;99.90;;;;;;5094272;28;20489;-68
2021/10/30 10:42:41;;;;;;;17.13;15.30;;;14.30;99.90;;;;;;5094671;28;20521;-69
2021/10/30 10:45:09;;;;;;;21.80;16.20;;;14.40;99.90;;;;;;5094345;28;20441;-68
2021/10/30 10:47:55;;;;;;;17.03;15.23;;;14.40;99.90;;;;;;5093847;28;20499;-68
2021/10/30 10:50:25;;;;;;;18.83;15.67;;;14.50;99.90;;;;;;5094414;28;20448;-68
2021/10/30 10:53:15;;;;;;;16.47;14.67;;;14.60;99.90;;;;;;5094519;28;20525;-68
2021/10/30 10:56:12;;;;;;;20.50;17.53;;;14.70;99.90;;;;;;5094763;28;20442;-68
2021/10/30 10:59:15;;;;;;;21.43;16.20;;;14.80;99.90;;;;;;5094455;28;20540;-68
2021/10/30 11:02:11;;;;;;;19.63;15.03;;;14.90;99.90;;;;;;5093824;28;20492;-68
2021/10/30 11:04:38;;;;;;;20.40;15.50;;;15.00;99.90;;;;;;5094242;28;20519;-68
2021/10/30 11:07:17;;;;;;;17.53;15.37;;;15.00;99.90;;;;;;5094167;28;20484;-68
2021/10/30 11:09:54;;;;;;;16.90;14.70;;;15.10;99.90;;;;;;5094094;28;20450;-68
2021/10/30 11:12:28;;;;;;;17.17;13.83;;;15.20;99.90;;;;;;5094482;28;20437;-67
2021/10/30 11:15:06;;;;;;;16.13;13.90;;;15.40;99.90;;;;;;5093797;28;20442;-67
2021/10/30 11:17:49;;;;;;;16.27;14.57;;;15.50;99.90;;;;;;5093921;28;20438;-68
2021/10/30 11:20:17;;;;;;;16.73;14.40;;;15.60;99.90;;;;;;5094017;28;20466;-67
2021/10/30 11:23:02;;;;;;;16.80;14.03;;;15.70;99.90;;;;;;5093691;28;20546;-68
2021/10/30 11:25:30;;;;;;;16.80;13.70;;;15.80;99.90;;;;;;5094286;28;20553;-68
2021/10/30 11:27:58;;;;;;;15.73;14.03;;;15.80;99.90;;;;;;5094342;28;20725;-69
2021/10/30 11:30:37;;;;;;;16.37;14.37;;;16.00;99.90;;;;;;5094057;28;20458;-69
2021/10/30 11:33:22;;;;;;;16.07;14.37;;;16.20;99.90;;;;;;5094539;28;20452;-70
2021/10/30 11:36:04;;;;;;;15.20;13.60;;;16.30;99.90;;;;;;5093641;28;20458;-69
2021/10/30 11:38:32;;;;;;;15.37;13.60;;;16.40;99.90;;;;;;5094434;28;20528;-71
2021/10/30 11:41:01;;;;;;;17.00;14.40;;;16.60;99.90;;;;;;5094492;28;20529;-70
2021/10/30 11:43:29;;;;;;;16.47;13.33;;;16.70;99.90;;;;;;5094963;28;20553;-70
2021/10/30 11:46:00;;;;;;;14.83;13.00;;;16.90;99.90;;;;;;5093984;28;20450;-70
2021/10/30 11:48:37;;;;;;;13.67;12.27;;;17.40;99.90;;;;;;5094154;28;20442;-70
2021/10/30 11:51:04;;;;;;;15.40;12.13;;;18.40;99.90;;;;;;5094449;28;20824;-70
2021/10/30 11:53:31;;;;;;;14.77;11.63;;;19.70;99.90;;;;;;5094077;28;20450;-70
2021/10/30 11:56:05;;;;;;;14.33;12.17;;;21.20;99.90;;;;;;5093652;28;20465;-69
2021/10/30 11:58:51;;;;;;;14.27;11.83;;;22.60;99.90;;;;;;5094142;28;20777;-69
2021/10/30 12:01:29;;;;;;;13.33;11.63;;;24.00;99.90;;;;;;5097227;28;20491;-69
2021/10/30 12:04:07;;;;;;;13.93;12.53;;;25.10;98.30;;;;;;5097715;28;20456;-69
2021/10/30 12:06:35;;;;;;;13.60;12.30;;;25.70;1.00;;;;;;5097671;28;20441;-69
2021/10/30 12:09:02;;;;;;;13.40;12.20;;;26.10;1.00;;;;;;5097393;28;20468;-70
2021/10/30 12:11:36;;;;;;;14.20;12.80;;;26.20;1.00;;;;;;5097590;28;20485;-69
2021/10/30 12:14:04;;;;;;;13.20;11.90;;;26.50;1.00;;;;;;5097143;28;20449;-69
2021/10/30 12:16:35;;;;;;;13.67;12.27;;;26.60;1.00;;;;;;5097257;28;20450;-69
2021/10/30 12:19:03;;;;;;;14.50;13.10;;;26.90;1.00;;;;;;5097345;28;20457;-68
2021/10/30 12:21:32;;;;;;;15.03;12.07;;;27.10;1.00;;;;;;5096717;28;20482;-69
2021/10/30 12:24:02;;;;;;;15.30;13.30;;;27.40;1.00;;;;;;5096792;28;20454;-69
2021/10/30 12:26:30;;;;;;;13.90;12.60;;;27.90;1.00;;;;;;5096780;28;20454;-70
2021/10/30 12:29:13;;;;;;;12.43;11.23;;;28.40;1.00;;;;;;5096923;28;20453;-69
2021/10/30 12:31:41;;;;;;;14.43;12.90;;;28.70;1.00;;;;;;5096774;28;20438;-70
2021/10/30 12:34:14;;;;;;;14.87;13.37;;;29.00;1.00;;;;;;5097044;28;20449;-70
2021/10/30 12:36:41;;;;;;;15.20;12.43;;;29.10;1.00;;;;;;5096786;28;20469;-69
2021/10/30 12:39:19;;;;;;;15.17;13.60;;;29.20;1.00;;;;;;5096933;28;20485;-69
2021/10/30 12:41:53;;;;;;;12.40;11.20;;;29.20;1.00;;;;;;5096825;28;20564;-70
2021/10/30 12:44:23;;;;;;;15.07;12.40;;;29.10;1.00;;;;;;5097055;28;20454;-70
2021/10/30 12:46:53;;;;;;;14.63;13.00;;;29.10;1.00;;;;;;5096376;28;20473;-70